ACT - Waco Rgnl

Pirep is a free, collaborative database of all public and private airports located within the United States. All pilots are welcome to contribute, edit, and improve any airport they have local knowledge about, no registration required.
Are you familiar with this airport? Help out other pilots by adding your local knowledge.
Uploaded photos will be licensed under a CC BY-SA 4.0 license. Please only upload photos you have the rights to use.
Tags
Public
Undocu­mented
METAR / TAF
Edit Tags
Food
Camping
Lodging
Car Rental
Bicycles
Swimming
Golfing
Fishing
Hot Springs
Museum
Flying Clubs
Airpark
Upcoming Events
No upcoming events. Is anything happening here soon?
*
*
*

Where exactly on/near the airport is this event taking place?

Is there a webpage with more information for this event?

Who should be contacted for more information?

What is this event all about?

Repeat every
Description
Transient Parking
Fuel Location
Landing & Tie-down Fees
Crew Car Availability
Flying Clubs
WiFi Access
Airport Statistics
Location: Waco, TX
Elevation: 516ft
Sectional: San Antonio
Activation date: Jul 1943
Fuel: 100LL, A, UL94 (prices)
Runway 01/19: 7,107ft
Runway 14/32: 5,103ft
Access: Open to the public
Current Weather — VFR
  • Weather data is strictly informational and not for flight planning purposes.
  • METAR
    2024-04-21 23:51:00 CDT
    Ceiling Wind Temperature Dewpoint Weather Visbility
    Sky clear 340° @ 3kt 50°F 46°F N/A 10SM
    Raw: KACT 220451Z AUTO 34003KT 10SM CLR 10/08 A3027 RMK AO2 SLP247 T01000078
  • TAF
    2024-04-21 22:00:00 CDT – 2024-04-22 11:00:00 CDT
    Ceiling Wind Weather Visbility
    Sky clear 20° @ 4kt N/A 6SM
    Clouds: Few @ 5,000ft
    Raw: KACT 220255Z 2203/2224 02004KT P6SM FEW050 FM221600 15009KT P6SM SKC
  • TAF
    2024-04-22 11:00:00 CDT – 2024-04-22 19:00:00 CDT
    Ceiling Wind Weather Visbility
    Sky clear 150° @ 9kt N/A 6SM
    Clouds: @ ft
    Raw: KACT 220255Z 2203/2224 02004KT P6SM FEW050 FM221600 15009KT P6SM SKC
Click/tap to add an annotation marker to the map
Airport Webcams
No webcams added yet.
Direct links to live image URLs will be displayed inline on this page. URLs to separate webpages will be linked to.
URL:
Direct links to live image URLs will be displayed inline on this page. URLs to separate webpages will be linked to.
URL:
Remarks
  • Ppr for unsked acr opns call amgr 254-750-8657.
  • For cd ctc waco apch at 121.9 or ctc fort worth artcc at 817-858-7584.
  • When atct clsd: malsr rwy 19; hirl rwy 01/19 preset low intst, to incr intst actvt - ctaf. reil rwy 14; mirl rwy 14/32; twy lgts preset low intst when wind favors, otrw not avbl.
Comments
Leave a comment What was your experience like at this airport?